Time;durP1;ratioP1;P1;durP2;ratioP2;P2;SDS_P1;SDS_P2;PMS_P1;PMS_P2;Temp;Humidity;BMP_temperature;BMP_pressure;BME280_temperature;BME280_humidity;BME280_pressure;Samples;Min_cycle;Max_cycle;Signal;HPM_P1;HPM_P2
2022/06/28 00:01:57;;;;;;;0.50;0.40;;;13.50;99.90;;;;;;5120435;28;20476;-83
2022/06/28 00:04:26;;;;;;;0.50;0.40;;;13.50;99.90;;;;;;5120165;28;20561;-83
2022/06/28 00:06:54;;;;;;;1.17;1.07;;;13.50;99.90;;;;;;5120471;28;20462;-83
2022/06/28 00:09:21;;;;;;;1.60;0.83;;;13.50;99.90;;;;;;5120921;28;20958;-83
2022/06/28 00:11:48;;;;;;;0.50;0.50;;;13.50;99.90;;;;;;5120901;28;20438;-84
2022/06/28 00:16:59;;;;;;;0.50;0.40;;;13.50;99.90;;;;;;5119528;28;20881;-83
2022/06/28 00:19:28;;;;;;;0.50;0.40;;;13.60;99.90;;;;;;5118394;28;20529;-83
2022/06/28 00:21:55;;;;;;;2.03;1.47;;;13.60;99.90;;;;;;5120330;28;20453;-84
2022/06/28 00:24:22;;;;;;;0.70;0.53;;;13.60;99.90;;;;;;5119766;28;20531;-83
2022/06/28 00:26:49;;;;;;;0.50;0.40;;;13.60;99.90;;;;;;5119248;28;20517;-83
2022/06/28 00:29:16;;;;;;;0.50;0.40;;;13.60;99.90;;;;;;5119931;28;20493;-83
2022/06/28 00:31:44;;;;;;;0.50;0.40;;;13.70;99.90;;;;;;5119162;28;20517;-83
2022/06/28 00:34:11;;;;;;;0.50;0.40;;;13.80;99.90;;;;;;5120344;28;20466;-83
2022/06/28 00:36:39;;;;;;;0.50;0.40;;;13.80;99.90;;;;;;5120224;28;20440;-83
2022/06/28 00:39:06;;;;;;;0.50;0.40;;;13.70;99.90;;;;;;5119318;28;20442;-84
2022/06/28 00:41:34;;;;;;;0.50;0.40;;;13.80;99.90;;;;;;5120960;28;20462;-82
2022/06/28 00:44:01;;;;;;;0.50;0.40;;;13.70;99.90;;;;;;5120330;28;20434;-83
2022/06/28 00:46:29;;;;;;;0.50;0.40;;;13.70;99.90;;;;;;5119689;28;20959;-83
2022/06/28 00:48:56;;;;;;;0.80;0.60;;;13.80;99.90;;;;;;5118969;28;20502;-84
2022/06/28 00:51:25;;;;;;;0.50;0.40;;;13.80;99.90;;;;;;5120062;28;20478;-83
2022/06/28 00:53:54;;;;;;;1.47;1.27;;;13.70;99.90;;;;;;5119833;28;20438;-83
2022/06/28 00:56:21;;;;;;;0.50;0.40;;;13.70;99.90;;;;;;5119561;28;20441;-83
2022/06/28 00:58:48;;;;;;;0.50;0.40;;;13.70;99.90;;;;;;5119254;28;20553;-83
2022/06/28 01:01:15;;;;;;;0.50;0.40;;;13.70;99.90;;;;;;5119466;28;20496;-83
2022/06/28 01:03:42;;;;;;;0.50;0.40;;;13.70;99.90;;;;;;5118959;28;20438;-84
2022/06/28 01:06:09;;;;;;;0.50;0.40;;;13.60;99.90;;;;;;5120014;28;20542;-84
2022/06/28 01:08:36;;;;;;;0.73;0.73;;;13.60;99.90;;;;;;5119206;28;20516;-83
2022/06/28 01:11:18;;;;;;;0.50;0.40;;;13.60;99.90;;;;;;5119928;28;20466;-83
2022/06/28 01:13:46;;;;;;;0.50;0.40;;;13.70;99.90;;;;;;5126943;28;20498;-80
2022/06/28 01:16:13;;;;;;;0.50;0.40;;;13.70;99.90;;;;;;5134755;28;20430;-85
2022/06/28 01:18:40;;;;;;;0.50;0.40;;;13.70;99.90;;;;;;5134298;28;20459;-83
2022/06/28 01:21:07;;;;;;;0.50;0.40;;;13.70;99.90;;;;;;5136582;28;20482;-81
2022/06/28 01:23:35;;;;;;;0.50;0.40;;;13.60;99.90;;;;;;5135515;28;20458;-81
2022/06/28 01:26:03;;;;;;;0.50;0.40;;;13.60;99.90;;;;;;5135565;28;20485;-82
2022/06/28 01:28:30;;;;;;;0.50;0.50;;;13.60;99.90;;;;;;5134192;28;20478;-83
2022/06/28 01:30:57;;;;;;;0.57;0.57;;;13.60;99.90;;;;;;5129813;28;20442;-84
2022/06/28 01:33:24;;;;;;;0.50;0.40;;;13.60;99.90;;;;;;5126906;28;20481;-83
2022/06/28 01:35:51;;;;;;;1.03;0.93;;;13.60;99.90;;;;;;5130361;28;20453;-83
2022/06/28 01:38:18;;;;;;;0.50;0.40;;;13.50;99.90;;;;;;5129409;28;20521;-83
2022/06/28 01:40:48;;;;;;;0.70;0.70;;;13.50;99.90;;;;;;5129622;28;20984;-83
2022/06/28 01:43:15;;;;;;;0.50;0.40;;;13.50;99.90;;;;;;5130463;28;20555;-83
2022/06/28 01:45:42;;;;;;;0.60;0.60;;;13.50;99.90;;;;;;5132869;28;20549;-83
2022/06/28 01:48:10;;;;;;;0.50;0.40;;;13.40;99.90;;;;;;5131932;28;20461;-84
2022/06/28 01:50:38;;;;;;;0.60;0.40;;;13.40;99.90;;;;;;5124482;28;20951;-84
2022/06/28 01:53:05;;;;;;;0.50;0.40;;;13.40;99.90;;;;;;5119293;28;20529;-83
2022/06/28 01:55:31;;;;;;;0.50;0.40;;;13.40;99.90;;;;;;5118801;28;20485;-84
2022/06/28 01:58:01;;;;;;;0.50;0.40;;;13.30;99.90;;;;;;5118023;28;20482;-83
2022/06/28 02:00:28;;;;;;;0.50;0.40;;;13.30;99.90;;;;;;5118230;28;20526;-83
2022/06/28 02:02:55;;;;;;;0.50;0.47;;;13.30;99.90;;;;;;5119111;28;20510;-84
2022/06/28 02:05:21;;;;;;;0.50;0.40;;;13.30;99.90;;;;;;5118138;28;20494;-83
2022/06/28 02:07:49;;;;;;;0.50;0.40;;;13.30;99.90;;;;;;5118429;28;20466;-83
2022/06/28 02:10:17;;;;;;;0.50;0.40;;;13.20;99.90;;;;;;5119267;28;20511;-84
2022/06/28 02:12:44;;;;;;;0.50;0.40;;;13.20;99.90;;;;;;5118921;28;20461;-80
2022/06/28 02:15:13;;;;;;;0.50;0.40;;;13.10;99.90;;;;;;5118449;28;20888;-84
2022/06/28 02:17:40;;;;;;;0.50;0.40;;;13.10;99.90;;;;;;5117927;28;20498;-83
2022/06/28 02:20:08;;;;;;;0.60;0.60;;;13.10;99.90;;;;;;5118844;28;20466;-84
2022/06/28 02:22:35;;;;;;;0.50;0.40;;;13.10;99.90;;;;;;5118385;28;20438;-83
2022/06/28 02:25:02;;;;;;;0.50;0.40;;;13.10;99.90;;;;;;5118181;28;20509;-83
2022/06/28 02:27:29;;;;;;;0.50;0.40;;;13.10;99.90;;;;;;5119882;28;20482;-83
2022/06/28 02:29:56;;;;;;;0.50;0.40;;;13.00;99.90;;;;;;5118183;28;20509;-84
2022/06/28 02:32:24;;;;;;;0.50;0.40;;;13.00;99.90;;;;;;5118096;28;20434;-83
2022/06/28 02:40:24;;;;;;;0.50;0.40;;;13.10;99.90;;;;;;5083326;28;20911;-83
2022/06/28 02:42:52;;;;;;;1.90;0.50;;;13.20;99.90;;;;;;5119878;28;20438;-83
2022/06/28 02:45:20;;;;;;;0.50;0.40;;;13.20;99.90;;;;;;5122401;28;20885;-83
2022/06/28 02:47:48;;;;;;;0.50;0.40;;;13.30;99.90;;;;;;5122517;28;20490;-84
2022/06/28 02:50:16;;;;;;;0.70;0.70;;;13.20;99.90;;;;;;5122481;28;20442;-83
2022/06/28 02:52:43;;;;;;;0.50;0.40;;;13.20;99.90;;;;;;5121819;28;20873;-83
2022/06/28 02:55:10;;;;;;;0.50;0.40;;;13.30;99.90;;;;;;5121561;28;20461;-83
2022/06/28 02:57:37;;;;;;;1.27;0.70;;;13.20;99.90;;;;;;5121611;28;20533;-80
2022/06/28 03:00:07;;;;;;;0.50;0.40;;;13.20;99.90;;;;;;5122060;28;20529;-84
2022/06/28 03:02:35;;;;;;;0.67;0.67;;;13.20;99.90;;;;;;5121206;28;20522;-83
2022/06/28 03:05:05;;;;;;;0.50;0.40;;;13.30;99.90;;;;;;5121767;28;20470;-83
2022/06/28 03:07:32;;;;;;;1.67;1.33;;;13.30;99.90;;;;;;5121565;28;20500;-84
2022/06/28 03:09:59;;;;;;;0.50;0.40;;;13.30;99.90;;;;;;5122824;28;20488;-84
2022/06/28 03:12:26;;;;;;;1.57;1.57;;;13.40;99.90;;;;;;5120711;28;20480;-84
2022/06/28 03:14:53;;;;;;;0.50;0.40;;;13.40;99.90;;;;;;5120399;28;20442;-84
2022/06/28 03:17:20;;;;;;;3.07;2.77;;;13.50;99.90;;;;;;5120404;28;20864;-84
2022/06/28 03:19:47;;;;;;;0.50;0.40;;;13.50;99.90;;;;;;5120364;28;20789;-83
2022/06/28 03:22:15;;;;;;;0.50;0.50;;;13.50;99.90;;;;;;5120277;28;20869;-85
2022/06/28 03:24:43;;;;;;;0.70;0.70;;;13.50;99.90;;;;;;5120402;28;20514;-84
2022/06/28 03:27:10;;;;;;;0.50;0.40;;;13.50;99.90;;;;;;5119739;28;20490;-85
2022/06/28 03:29:37;;;;;;;0.60;0.50;;;13.50;99.90;;;;;;5120150;28;20450;-85
2022/06/28 03:32:04;;;;;;;0.50;0.40;;;13.40;99.90;;;;;;5120039;28;20444;-85
2022/06/28 03:34:31;;;;;;;0.60;0.60;;;13.40;99.90;;;;;;5120421;28;20436;-85
2022/06/28 03:36:58;;;;;;;0.50;0.50;;;13.50;99.90;;;;;;5120094;28;20456;-85
2022/06/28 03:39:26;;;;;;;0.50;0.40;;;13.50;99.90;;;;;;5120099;28;20481;-85
2022/06/28 03:41:53;;;;;;;1.93;0.67;;;13.50;99.90;;;;;;5120386;28;20506;-85
2022/06/28 03:44:20;;;;;;;0.60;0.60;;;13.50;99.90;;;;;;5119885;28;20447;-85
2022/06/28 03:46:47;;;;;;;0.50;0.40;;;13.50;99.90;;;;;;5120266;28;20884;-85
2022/06/28 03:49:14;;;;;;;0.93;0.93;;;13.50;99.90;;;;;;5119703;28;20877;-85
2022/06/28 03:51:41;;;;;;;0.50;0.40;;;13.50;99.90;;;;;;5120202;28;20462;-85
2022/06/28 03:54:07;;;;;;;0.50;0.40;;;13.60;99.90;;;;;;5120269;28;20495;-84
2022/06/28 03:56:36;;;;;;;0.50;0.40;;;13.50;99.90;;;;;;5119968;28;20481;-84
2022/06/28 03:59:02;;;;;;;1.50;1.43;;;13.50;99.90;;;;;;5124826;28;20445;-83
2022/06/28 04:01:29;;;;;;;0.50;0.40;;;13.50;99.90;;;;;;5127620;28;20530;-85
2022/06/28 04:03:56;;;;;;;0.50;0.40;;;13.60;99.90;;;;;;5122049;28;20857;-83
2022/06/28 04:06:23;;;;;;;0.50;0.40;;;13.60;99.90;;;;;;5120151;28;20561;-83
2022/06/28 04:08:50;;;;;;;0.50;0.40;;;13.60;99.90;;;;;;5118712;28;20561;-86
2022/06/28 04:11:17;;;;;;;0.50;0.37;;;13.60;99.90;;;;;;5119626;28;20872;-85
2022/06/28 04:13:46;;;;;;;0.50;0.40;;;13.60;99.90;;;;;;5119401;28;20793;-85
2022/06/28 04:16:14;;;;;;;0.50;0.40;;;13.70;99.90;;;;;;5119531;28;20441;-85
2022/06/28 04:18:41;;;;;;;0.50;0.40;;;13.70;99.90;;;;;;5118545;28;20489;-83
2022/06/28 04:21:09;;;;;;;0.80;0.60;;;13.70;99.90;;;;;;5119431;28;20517;-85
2022/06/28 04:23:35;;;;;;;3.93;3.13;;;13.70;99.90;;;;;;5119577;28;20476;-85
2022/06/28 04:26:03;;;;;;;0.50;0.40;;;13.80;99.90;;;;;;5119180;28;20565;-84
2022/06/28 04:28:29;;;;;;;1.13;1.03;;;13.90;99.90;;;;;;5118496;28;20552;-85
2022/06/28 04:30:58;;;;;;;2.13;1.87;;;13.90;99.90;;;;;;5118337;28;20477;-83
2022/06/28 04:33:25;;;;;;;1.10;1.10;;;13.90;99.90;;;;;;5119304;28;20872;-85
2022/06/28 04:35:52;;;;;;;0.70;0.60;;;14.00;99.90;;;;;;5119376;28;20466;-84
2022/06/28 04:38:19;;;;;;;0.50;0.40;;;13.90;99.90;;;;;;5118797;28;20550;-85
2022/06/28 04:40:46;;;;;;;0.50;0.40;;;13.90;99.90;;;;;;5118416;28;20577;-85
2022/06/28 04:43:13;;;;;;;1.17;1.00;;;13.90;99.90;;;;;;5119220;28;20514;-84
2022/06/28 04:45:40;;;;;;;2.83;1.77;;;14.00;99.90;;;;;;5118875;28;20557;-85
2022/06/28 04:48:09;;;;;;;0.70;0.50;;;14.10;99.90;;;;;;5119194;28;20546;-84
2022/06/28 04:50:35;;;;;;;0.50;0.40;;;14.10;99.90;;;;;;5118993;28;20457;-85
2022/06/28 04:53:02;;;;;;;0.50;0.40;;;14.20;99.90;;;;;;5118863;28;20487;-85
2022/06/28 04:55:29;;;;;;;2.00;1.17;;;14.20;99.90;;;;;;5118175;28;20426;-84
2022/06/28 04:57:56;;;;;;;0.50;0.50;;;14.20;99.90;;;;;;5118265;28;20553;-85
2022/06/28 05:00:23;;;;;;;0.50;0.37;;;14.30;99.90;;;;;;5118597;28;20438;-85
2022/06/28 05:02:50;;;;;;;0.50;0.40;;;14.30;99.90;;;;;;5119054;28;20449;-85
2022/06/28 05:05:18;;;;;;;0.60;0.57;;;14.30;99.90;;;;;;5119007;28;20435;-84
2022/06/28 05:07:45;;;;;;;0.50;0.40;;;14.40;99.90;;;;;;5118761;28;20462;-84
2022/06/28 05:10:12;;;;;;;0.70;0.70;;;14.40;99.90;;;;;;5119118;28;20506;-86
2022/06/28 05:12:39;;;;;;;0.80;0.67;;;14.50;99.90;;;;;;5119215;28;20533;-85
2022/06/28 05:15:07;;;;;;;1.20;1.10;;;14.70;99.90;;;;;;5119205;28;20477;-85
2022/06/28 05:17:33;;;;;;;0.50;0.40;;;14.70;99.90;;;;;;5118575;28;20549;-85
2022/06/28 05:20:01;;;;;;;0.50;0.40;;;14.80;99.90;;;;;;5119283;28;20437;-84
2022/06/28 05:22:29;;;;;;;0.50;0.40;;;14.80;99.90;;;;;;5118632;28;20439;-85
2022/06/28 05:24:56;;;;;;;0.50;0.40;;;14.80;99.90;;;;;;5119433;28;20470;-83
2022/06/28 05:27:23;;;;;;;0.50;0.30;;;14.90;99.90;;;;;;5119553;28;20475;-84
2022/06/28 05:29:50;;;;;;;0.80;0.73;;;15.00;99.90;;;;;;5120050;28;20446;-85
2022/06/28 05:32:17;;;;;;;0.50;0.33;;;15.00;99.90;;;;;;5119022;28;20467;-85
2022/06/28 05:34:44;;;;;;;0.50;0.40;;;15.10;99.90;;;;;;5119983;28;20485;-84
2022/06/28 05:37:11;;;;;;;0.70;0.70;;;15.10;99.90;;;;;;5119434;28;20900;-85
2022/06/28 05:39:39;;;;;;;0.50;0.40;;;15.20;99.90;;;;;;5119187;28;20479;-86
2022/06/28 05:42:06;;;;;;;0.50;0.40;;;15.30;99.90;;;;;;5118723;28;20529;-87
2022/06/28 05:44:33;;;;;;;0.93;0.80;;;15.30;99.90;;;;;;5118554;28;20518;-85
2022/06/28 05:47:00;;;;;;;0.60;0.60;;;15.40;99.90;;;;;;5119058;28;20517;-84
2022/06/28 05:49:27;;;;;;;2.20;1.57;;;15.60;99.90;;;;;;5118473;28;20529;-85
2022/06/28 05:51:54;;;;;;;0.50;0.50;;;15.60;99.90;;;;;;5118260;28;20476;-84
2022/06/28 05:54:20;;;;;;;2.93;1.20;;;15.70;99.90;;;;;;5118783;28;20514;-85
2022/06/28 05:56:49;;;;;;;0.73;0.73;;;15.70;99.90;;;;;;5118533;28;20858;-85
2022/06/28 05:59:16;;;;;;;7.20;2.37;;;15.80;99.90;;;;;;5118333;28;20442;-85
2022/06/28 06:01:42;;;;;;;0.50;0.40;;;15.80;99.90;;;;;;5117920;28;20518;-85
2022/06/28 06:04:09;;;;;;;2.37;2.17;;;15.90;99.90;;;;;;5117988;28;20521;-85
2022/06/28 06:06:36;;;;;;;0.50;0.40;;;16.00;99.90;;;;;;5118338;28;20468;-85
2022/06/28 06:09:03;;;;;;;0.50;0.40;;;16.10;99.90;;;;;;5161187;22;20577;-78
2022/06/28 06:11:30;;;;;;;1.47;0.70;;;16.20;99.90;;;;;;5051998;28;20522;-78
2022/06/28 06:13:58;;;;;;;0.80;0.80;;;16.40;99.90;;;;;;5066941;28;20520;-79
2022/06/28 06:16:25;;;;;;;2.03;1.13;;;16.50;99.90;;;;;;5072468;28;20852;-78
2022/06/28 06:18:52;;;;;;;6.90;1.77;;;16.60;99.90;;;;;;5070583;28;20907;-79
2022/06/28 06:21:19;;;;;;;0.60;0.53;;;16.70;99.90;;;;;;5071799;28;20435;-78
2022/06/28 06:23:46;;;;;;;0.80;0.50;;;16.80;99.90;;;;;;5072154;28;20933;-79
2022/06/28 06:26:13;;;;;;;0.50;0.40;;;17.00;99.90;;;;;;5071967;28;20580;-78
2022/06/28 06:28:40;;;;;;;0.50;0.40;;;17.20;99.90;;;;;;5071922;28;20897;-79
2022/06/28 06:31:09;;;;;;;0.50;0.40;;;17.50;99.90;;;;;;5071296;28;20515;-79
2022/06/28 06:33:36;;;;;;;0.50;0.40;;;17.70;99.90;;;;;;5072425;28;20443;-79
2022/06/28 06:36:03;;;;;;;0.50;0.30;;;17.80;99.90;;;;;;5072077;28;20442;-78
2022/06/28 06:38:30;;;;;;;2.90;1.80;;;18.10;99.90;;;;;;5071338;28;20492;-80
2022/06/28 06:40:59;;;;;;;0.50;0.40;;;18.80;99.90;;;;;;5071825;28;20474;-78
2022/06/28 06:43:27;;;;;;;0.50;0.40;;;20.20;99.90;;;;;;5071833;28;20491;-79
2022/06/28 06:45:54;;;;;;;0.50;0.40;;;21.80;99.90;;;;;;5070707;28;20440;-77
2022/06/28 06:48:23;;;;;;;0.50;0.40;;;23.50;99.90;;;;;;5070693;28;20448;-78
2022/06/28 06:50:50;;;;;;;0.80;0.80;;;24.60;99.90;;;;;;5071017;28;20470;-77
2022/06/28 06:53:19;;;;;;;0.60;0.60;;;25.30;99.90;;;;;;5071208;28;20532;-78
2022/06/28 06:55:47;;;;;;;18.43;0.83;;;25.60;99.90;;;;;;5071949;28;20463;-76
2022/06/28 06:58:13;;;;;;;0.50;0.30;;;25.60;99.90;;;;;;5072996;28;20426;-76
2022/06/28 07:00:41;;;;;;;0.50;0.30;;;26.80;99.90;;;;;;5072965;28;20547;-78
2022/06/28 07:03:08;;;;;;;1.47;0.90;;;27.80;91.60;;;;;;5071956;28;20464;-77
2022/06/28 07:05:36;;;;;;;0.60;0.57;;;27.90;86.40;;;;;;5071012;28;20440;-78
2022/06/28 07:08:03;;;;;;;2.13;0.90;;;28.10;85.20;;;;;;5070618;28;20558;-78
2022/06/28 07:10:30;;;;;;;0.50;0.30;;;28.60;81.00;;;;;;5070806;28;20559;-79
2022/06/28 07:12:57;;;;;;;0.50;0.30;;;29.50;83.40;;;;;;5070513;28;20535;-79
2022/06/28 07:15:24;;;;;;;0.50;0.40;;;30.10;74.60;;;;;;5070886;28;20528;-76
2022/06/28 07:17:51;;;;;;;0.50;0.40;;;30.90;71.10;;;;;;5070413;28;20523;-78
2022/06/28 07:20:19;;;;;;;0.50;0.30;;;30.60;67.70;;;;;;5071036;28;20488;-78
2022/06/28 07:22:47;;;;;;;0.50;0.30;;;30.70;69.20;;;;;;5070874;28;20527;-79
2022/06/28 07:25:14;;;;;;;0.50;0.30;;;31.70;70.30;;;;;;5070707;28;20535;-80
2022/06/28 07:27:41;;;;;;;0.50;0.30;;;32.20;64.50;;;;;;5070779;28;20818;-79
2022/06/28 07:30:09;;;;;;;0.50;0.30;;;32.60;62.90;;;;;;5073993;28;20460;-79
2022/06/28 07:32:37;;;;;;;0.50;0.30;;;32.40;62.60;;;;;;5074167;28;20446;-80
2022/06/28 07:35:04;;;;;;;0.50;0.30;;;33.50;63.20;;;;;;5075145;28;20519;-79
2022/06/28 07:37:31;;;;;;;0.50;0.30;;;34.80;58.60;;;;;;5074348;28;20742;-80
2022/06/28 07:40:00;;;;;;;0.50;0.30;;;35.00;55.00;;;;;;5075006;28;20775;-79
2022/06/28 07:42:26;;;;;;;1.83;1.50;;;35.20;55.50;;;;;;5074804;28;20519;-79
2022/06/28 07:44:53;;;;;;;0.50;0.30;;;34.40;54.40;;;;;;5075047;28;20486;-80
2022/06/28 07:47:20;;;;;;;0.50;0.40;;;34.90;54.70;;;;;;5073949;28;20468;-78
2022/06/28 07:52:37;;;;;;;0.50;0.30;;;35.30;53.80;;;;;;5074438;28;20424;-79
2022/06/28 07:55:08;;;;;;;0.50;0.40;;;35.00;53.60;;;;;;5073719;28;20511;-78
2022/06/28 07:57:35;;;;;;;0.50;0.30;;;34.90;53.00;;;;;;5073134;28;20531;-78
2022/06/28 08:00:04;;;;;;;0.50;0.30;;;34.80;53.00;;;;;;5073235;28;20551;-78
2022/06/28 08:02:31;;;;;;;0.60;0.60;;;35.00;52.40;;;;;;5073783;28;20443;-78
2022/06/28 08:04:58;;;;;;;0.50;0.30;;;33.50;53.30;;;;;;5073781;28;20446;-77
2022/06/28 08:07:25;;;;;;;0.50;0.30;;;33.40;54.90;;;;;;5073639;28;20570;-78
2022/06/28 08:09:53;;;;;;;0.50;0.30;;;34.10;54.50;;;;;;5073081;28;20472;-78
2022/06/28 08:12:21;;;;;;;0.77;0.77;;;33.90;54.00;;;;;;5073130;28;20436;-78
2022/06/28 08:14:48;;;;;;;0.50;0.50;;;34.80;52.40;;;;;;5073436;28;20563;-77
2022/06/28 08:17:14;;;;;;;0.50;0.30;;;35.00;52.60;;;;;;5073257;28;20507;-77
2022/06/28 08:19:42;;;;;;;0.50;0.30;;;34.90;52.50;;;;;;5073233;28;20542;-78
2022/06/28 08:22:09;;;;;;;0.90;0.80;;;35.30;51.40;;;;;;5073712;28;20938;-77
2022/06/28 08:24:36;;;;;;;4.70;0.77;;;35.00;50.70;;;;;;5073334;28;20440;-76
2022/06/28 08:27:03;;;;;;;0.50;0.40;;;34.50;50.60;;;;;;5072922;28;20511;-79
2022/06/28 08:29:32;;;;;;;0.50;0.30;;;33.60;52.60;;;;;;5073009;28;20547;-79
2022/06/28 08:31:59;;;;;;;0.50;0.30;;;33.80;52.70;;;;;;5073403;28;20825;-80
2022/06/28 08:34:26;;;;;;;0.50;0.40;;;33.70;53.10;;;;;;5073534;28;20527;-79
2022/06/28 08:36:53;;;;;;;0.50;0.50;;;34.40;51.90;;;;;;5073709;28;20527;-78
2022/06/28 08:39:20;;;;;;;0.50;0.40;;;34.90;51.20;;;;;;5073785;28;20554;-78
2022/06/28 08:41:48;;;;;;;0.50;0.30;;;33.00;52.00;;;;;;5073069;28;20444;-78
2022/06/28 08:44:17;;;;;;;0.50;0.40;;;33.20;54.00;;;;;;5073955;28;20484;-78
2022/06/28 08:46:49;;;;;;;0.50;0.30;;;33.80;54.10;;;;;;5072649;28;21090;-79
2022/06/28 08:49:23;;;;;;;0.50;0.40;;;34.80;51.70;;;;;;5078210;28;20456;-78
2022/06/28 08:51:52;;;;;;;0.50;0.40;;;34.10;51.10;;;;;;5075458;28;20522;-78
2022/06/28 08:54:20;;;;;;;0.60;0.50;;;33.70;51.30;;;;;;5074737;28;20440;-77
2022/06/28 08:56:47;;;;;;;0.50;0.43;;;33.50;51.20;;;;;;5072880;28;20841;-78
2022/06/28 08:59:15;;;;;;;0.50;0.30;;;34.00;51.50;;;;;;5072841;28;20487;-79
2022/06/28 09:01:42;;;;;;;2.60;0.80;;;33.40;51.80;;;;;;5073187;28;20467;-78
2022/06/28 09:04:11;;;;;;;0.57;0.57;;;33.90;52.00;;;;;;5072911;28;20527;-77
2022/06/28 09:06:39;;;;;;;1.47;0.70;;;33.90;52.00;;;;;;5074358;28;20436;-78
2022/06/28 09:09:05;;;;;;;0.50;0.30;;;34.40;51.10;;;;;;5072228;28;20555;-78
2022/06/28 09:11:38;;;;;;;0.50;0.30;;;35.30;50.80;;;;;;5072734;28;20522;-78
2022/06/28 09:14:21;;;;;;;0.50;0.30;;;33.90;49.60;;;;;;5072827;28;20433;-78
2022/06/28 09:16:48;;;;;;;0.50;0.30;;;33.30;51.40;;;;;;5072397;28;20423;-75
2022/06/28 09:19:16;;;;;;;0.50;0.30;;;33.60;51.50;;;;;;5072649;28;20540;-78
2022/06/28 09:21:45;;;;;;;0.50;0.30;;;33.60;51.20;;;;;;5072614;28;20436;-78
2022/06/28 09:24:24;;;;;;;0.60;0.40;;;33.70;50.70;;;;;;5073756;28;20475;-79
2022/06/28 09:26:54;;;;;;;0.50;0.30;;;34.10;50.80;;;;;;5073975;28;20976;-78
2022/06/28 09:29:21;;;;;;;0.50;0.30;;;33.90;50.60;;;;;;5072065;28;20468;-78
2022/06/28 09:31:48;;;;;;;0.50;0.30;;;33.90;48.90;;;;;;5071905;28;20534;-76
2022/06/28 09:34:17;;;;;;;0.50;0.30;;;34.20;48.90;;;;;;5071831;28;20527;-78
2022/06/28 09:36:55;;;;;;;0.50;0.30;;;34.30;48.30;;;;;;5071688;28;20443;-79
2022/06/28 09:39:23;;;;;;;0.50;0.30;;;34.40;50.70;;;;;;5072433;28;20464;-78
2022/06/28 09:41:51;;;;;;;0.50;0.40;;;34.40;49.90;;;;;;5072011;28;20476;-78
2022/06/28 09:44:23;;;;;;;0.50;0.30;;;34.70;49.50;;;;;;5071649;28;21240;-79
2022/06/28 09:46:51;;;;;;;1.03;0.40;;;34.80;48.70;;;;;;5071728;28;20531;-78
2022/06/28 09:49:19;;;;;;;0.50;0.30;;;35.40;49.00;;;;;;5071688;28;20464;-79
2022/06/28 09:51:47;;;;;;;0.50;0.30;;;36.00;48.80;;;;;;5071504;28;20532;-77
2022/06/28 09:54:14;;;;;;;0.50;0.40;;;37.00;49.10;;;;;;5071489;28;20539;-77
2022/06/28 09:56:43;;;;;;;0.43;0.30;;;37.90;47.20;;;;;;5071783;28;20818;-78
2022/06/28 09:59:11;;;;;;;0.50;0.40;;;37.00;48.30;;;;;;5073215;28;20528;-77
2022/06/28 10:01:38;;;;;;;0.40;0.30;;;36.00;48.70;;;;;;5071723;28;20892;-77
2022/06/28 10:04:05;;;;;;;1.70;1.40;;;36.00;49.20;;;;;;5071573;28;20512;-78
2022/06/28 10:06:35;;;;;;;0.50;0.30;;;36.80;48.60;;;;;;5072743;28;20446;-80
2022/06/28 10:09:05;;;;;;;0.50;0.30;;;36.50;48.10;;;;;;5070855;28;20859;-80
2022/06/28 10:15:01;;;;;;;0.50;0.30;;;35.10;48.20;;;;;;5071985;28;20869;-78
2022/06/28 10:17:22;;;;;;;1.07;1.03;;;33.80;50.00;;;;;;5070887;28;20422;-79
2022/06/28 10:19:50;;;;;;;0.50;0.30;;;33.60;51.20;;;;;;5071722;28;20546;-79
2022/06/28 10:22:18;;;;;;;0.50;0.30;;;34.50;48.90;;;;;;5071883;28;20531;-78
2022/06/28 10:24:53;;;;;;;0.50;0.30;;;35.10;49.40;;;;;;5071811;28;20443;-78
2022/06/28 10:27:21;;;;;;;0.43;0.30;;;36.40;48.10;;;;;;5071766;28;20467;-79
2022/06/28 10:30:22;;;;;;;0.40;0.30;;;37.10;46.90;;;;;;5070915;28;20478;-77
2022/06/28 10:32:50;;;;;;;0.50;0.30;;;36.60;47.20;;;;;;5037662;28;20532;-78
2022/06/28 10:35:53;;;;;;;0.50;0.30;;;35.10;47.50;;;;;;5071321;28;20874;-77
2022/06/28 10:38:21;;;;;;;0.50;0.30;;;33.60;48.00;;;;;;5071048;28;20435;-78
2022/06/28 10:40:49;;;;;;;0.50;0.30;;;31.60;50.50;;;;;;5071721;28;20555;-79
2022/06/28 10:43:36;;;;;;;1.90;0.97;;;31.90;52.30;;;;;;5071333;28;20487;-79
2022/06/28 10:46:07;;;;;;;0.50;0.30;;;31.80;51.60;;;;;;5073204;28;21019;-79
2022/06/28 10:49:01;;;;;;;0.50;0.30;;;31.80;51.60;;;;;;5070873;28;20551;-79
2022/06/28 10:51:29;;;;;;;0.50;0.30;;;32.70;52.00;;;;;;5071528;28;20467;-78
2022/06/28 10:54:04;;;;;;;0.50;0.30;;;33.00;50.50;;;;;;5071741;28;20490;-77
2022/06/28 10:56:31;;;;;;;0.50;0.30;;;34.10;49.40;;;;;;5075372;28;20427;-78
2022/06/28 10:59:02;;;;;;;0.50;0.30;;;35.00;47.60;;;;;;5074381;28;20495;-77
2022/06/28 11:01:57;;;;;;;0.50;0.30;;;34.80;47.60;;;;;;5074463;28;20844;-78
2022/06/28 11:04:28;;;;;;;0.50;0.40;;;34.70;48.10;;;;;;5075291;28;20467;-79
2022/06/28 11:07:06;;;;;;;0.50;0.30;;;35.00;46.00;;;;;;5076388;28;20444;-76
2022/06/28 11:10:04;;;;;;;0.70;0.67;;;34.40;44.90;;;;;;5074570;28;20538;-76
2022/06/28 11:12:39;;;;;;;0.50;0.30;;;35.10;46.40;;;;;;5073971;28;21027;-77
2022/06/28 11:15:09;;;;;;;0.50;0.30;;;36.00;46.00;;;;;;5075087;28;20858;-79
2022/06/28 11:17:38;;;;;;;0.50;0.30;;;35.00;46.60;;;;;;5074684;28;20432;-78
2022/06/28 11:20:07;;;;;;;0.50;0.30;;;33.80;47.00;;;;;;5075017;28;20538;-78
2022/06/28 11:22:39;;;;;;;0.50;0.30;;;32.10;47.70;;;;;;5075856;28;20443;-78
2022/06/28 11:25:10;;;;;;;0.50;0.30;;;31.90;49.40;;;;;;5075197;28;20884;-79
2022/06/28 11:27:43;;;;;;;0.50;0.30;;;31.50;50.30;;;;;;5075764;28;20837;-78
2022/06/28 11:30:11;;;;;;;0.50;0.30;;;31.20;50.40;;;;;;5074619;28;20459;-78
2022/06/28 11:32:40;;;;;;;0.50;0.30;;;30.70;49.10;;;;;;5074247;28;20474;-78
2022/06/28 11:35:10;;;;;;;0.50;0.30;;;31.10;50.70;;;;;;5074315;28;20860;-79
2022/06/28 11:37:48;;;;;;;0.50;0.30;;;31.30;50.10;;;;;;5074338;28;20439;-80
2022/06/28 11:40:17;;;;;;;0.50;0.30;;;32.80;48.90;;;;;;5074439;28;20554;-79
2022/06/28 11:42:44;;;;;;;0.50;0.30;;;34.00;46.50;;;;;;5074454;28;20543;-79
2022/06/28 11:45:13;;;;;;;0.50;0.50;;;35.10;46.70;;;;;;5074403;28;20809;-79
2022/06/28 11:47:43;;;;;;;0.50;0.30;;;36.20;43.80;;;;;;5073598;28;20997;-79
2022/06/28 11:50:13;;;;;;;0.50;0.50;;;36.20;43.20;;;;;;5074556;28;20982;-79
2022/06/28 11:52:51;;;;;;;1.20;0.83;;;36.60;43.80;;;;;;5074485;28;20507;-78
2022/06/28 11:55:35;;;;;;;0.40;0.30;;;36.90;43.40;;;;;;5074460;28;20484;-79
2022/06/28 11:58:17;;;;;;;0.40;0.30;;;37.40;43.30;;;;;;5074154;28;20431;-80
2022/06/28 12:01:04;;;;;;;0.40;0.30;;;37.30;43.00;;;;;;5074669;28;20460;-79
2022/06/28 12:03:32;;;;;;;0.40;0.30;;;36.60;43.00;;;;;;5074550;28;20467;-78
2022/06/28 12:06:01;;;;;;;0.50;0.30;;;36.30;42.50;;;;;;5074214;28;20531;-78
2022/06/28 12:08:43;;;;;;;0.40;0.30;;;35.70;42.50;;;;;;5073654;28;20482;-79
2022/06/28 12:11:28;;;;;;;0.50;0.30;;;36.00;43.80;;;;;;5134413;22;20566;-84
2022/06/28 12:13:59;;;;;;;0.60;0.40;;;36.20;42.80;;;;;;5090324;28;20459;-84
2022/06/28 12:16:30;;;;;;;0.43;0.30;;;35.90;43.30;;;;;;5079122;28;20852;-84
2022/06/28 12:18:59;;;;;;;0.40;0.30;;;36.00;41.80;;;;;;5086433;28;20796;-84
2022/06/28 12:21:26;;;;;;;0.50;0.30;;;35.70;42.90;;;;;;5100575;28;20557;-82
2022/06/28 12:23:55;;;;;;;0.40;0.30;;;36.40;41.70;;;;;;5101470;28;20518;-82
2022/06/28 12:26:39;;;;;;;0.50;0.30;;;36.30;42.10;;;;;;5100307;28;20877;-84
2022/06/28 12:29:07;;;;;;;1.03;0.83;;;35.10;42.10;;;;;;5099493;28;20917;-84
2022/06/28 12:31:34;;;;;;;0.43;0.30;;;34.90;42.50;;;;;;5099762;28;20519;-84
2022/06/28 12:34:05;;;;;;;0.50;0.40;;;34.30;42.90;;;;;;5100588;28;20490;-84
2022/06/28 12:36:32;;;;;;;0.40;0.30;;;34.80;45.10;;;;;;5101482;28;20434;-82
2022/06/28 12:38:59;;;;;;;0.40;0.30;;;34.80;42.20;;;;;;5100483;28;20466;-82
2022/06/28 12:41:26;;;;;;;0.40;0.30;;;35.80;42.60;;;;;;5100300;28;20465;-81
2022/06/28 12:43:54;;;;;;;0.40;0.30;;;36.90;42.70;;;;;;5100625;28;20455;-82
2022/06/28 12:46:21;;;;;;;0.40;0.30;;;37.00;41.00;;;;;;5099737;28;20530;-82
2022/06/28 12:48:48;;;;;;;0.40;0.30;;;36.60;41.90;;;;;;5100058;28;20510;-82
2022/06/28 12:51:15;;;;;;;0.40;0.30;;;36.60;41.20;;;;;;5099710;28;20487;-84
2022/06/28 12:53:42;;;;;;;0.40;0.30;;;35.90;41.00;;;;;;5100154;28;20467;-82
2022/06/28 12:56:09;;;;;;;0.40;0.30;;;36.40;42.00;;;;;;5099740;28;20467;-82
2022/06/28 12:58:36;;;;;;;0.40;0.30;;;36.50;42.50;;;;;;5099875;28;20940;-84
2022/06/28 13:01:04;;;;;;;0.40;0.30;;;37.00;42.70;;;;;;5101333;28;20588;-82
2022/06/28 13:03:31;;;;;;;0.40;0.30;;;37.60;41.50;;;;;;5100985;28;20470;-82
2022/06/28 13:05:58;;;;;;;0.50;0.30;;;37.10;41.40;;;;;;5100574;28;20475;-83
2022/06/28 13:08:25;;;;;;;0.50;0.30;;;36.20;42.50;;;;;;5101760;28;20471;-81
2022/06/28 13:10:52;;;;;;;0.50;0.30;;;34.80;42.80;;;;;;5100194;28;20980;-82